• Join FlightAware (Why Join?)
  • Login
  • US Flag 
02:28AM EST


 

Airport Tracker/Info


-or-


 

Live Flight TrackerFlight Track Log ✈ AVN21 ✈ 29-Aug-2014 ✈ YBBN / BNE - NVVV / VLI

Flight Track Log - Related Links

Times and Time Zones

All times are in EDT time to prevent confusion due to time zone crossing. See the AVN21 flight status page for this flight to view local times or setup timezone preferences in your user account.

Time Position Orientation Groundspeed Altitude Reporting Facility
EDT Latitude Longitude Course Direction KTS MPH feet Rate Location/Type
05:16AM -27.3795 153.1315 26° Northeast 167 192 100  Level FlightAware ADS-B (YBBN / BNE)
05:16AM -27.3696 153.1369 26° Northeast 175 201 500 1,860 Climbing FlightAware ADS-B (YBBN / BNE)
05:17AM -27.3561 153.1470 43° Northeast 172 198 1,200 1,500 Climbing FlightAware ADS-B (YBBN / BNE)
05:17AM -27.3481 153.1555 44° Northeast 190 219 1,400 960 Climbing FlightAware ADS-B (YBBN / BNE)
05:17AM -27.3371 153.1674 43° Northeast 205 236 1,700 1,380 Climbing FlightAware ADS-B (YBBN / BNE)
05:17AM -27.3256 153.1794 44° Northeast 216 249 2,100 1,980 Climbing FlightAware ADS-B (YBBN / BNE)
05:18AM -27.3169 153.1918 58° Northeast 218 251 2,700 2,160 Climbing FlightAware ADS-B (YBBN / BNE)
05:18AM -27.3102 153.2085 71° East 226 260 3,200 1,560 Climbing FlightAware ADS-B (YBBN / BNE)
05:18AM -27.3051 153.2262 73° East 246 283 3,500 1,200 Climbing FlightAware ADS-B (YBBN / BNE)
05:18AM -27.3001 153.2446 73° East 265 305 3,800 1,320 Climbing FlightAware ADS-B (YBBN / BNE)
05:19AM -27.2943 153.2657 73° East 277 319 4,200 1,320 Climbing FlightAware ADS-B (YBBN / BNE)
05:19AM -27.2861 153.2951 72° East 294 338 4,600 1,200 Climbing FlightAware ADS-B (YENO)
05:19AM -27.2750 153.3335 73° East 325 374 5,100 1,500 Climbing FlightAware ADS-B (YBBN / BNE)
05:20AM -27.2683 153.3577 73° East 332 382 5,600 2,100 Climbing FlightAware ADS-B (YBBN / BNE)
05:20AM -27.2612 153.3833 73° East 339 390 6,300 2,040 Climbing FlightAware ADS-B (YENO)
05:20AM -27.2521 153.4157 73° East 344 396 6,800 2,520 Climbing FlightAware ADS-B (YENO)
05:21AM -27.2404 153.4577 73° East 346 398 8,000 2,820 Climbing FlightAware ADS-B (YBBN / BNE)
05:21AM -27.2327 153.4852 73° East 348 400 8,700 2,460 Climbing FlightAware ADS-B (YBBN / BNE)
05:21AM -27.2255 153.5111 73° East 351 404 9,300 2,400 Climbing FlightAware ADS-B (YBBN / BNE)
05:21AM -27.2182 153.5376 73° East 355 409 9,900 2,520 Climbing FlightAware ADS-B (YBBN / BNE)
05:22AM -27.2030 153.5910 72° East 363 418 11,200 2,700 Climbing FlightAware ADS-B (YBBN / BNE)
05:22AM -27.1836 153.6532 66° East 374 430 12,800 2,580 Climbing FlightAware ADS-B (YBBN / BNE)
05:23AM -27.1419 153.7306 56° Northeast 392 451 14,700 2,640 Climbing FlightAware ADS-B (YBBN / BNE)
05:24AM -27.1121 153.7804 57° Northeast 398 458 16,100 2,460 Climbing FlightAware ADS-B (YENO)
05:24AM -27.0806 153.8333 56° Northeast 414 476 17,200 2,100 Climbing FlightAware ADS-B (YBBN / BNE)
05:25AM -27.0470 153.8896 56° Northeast 426 490 18,300 1,980 Climbing FlightAware ADS-B (YENO)
05:25AM -26.9980 153.9715 56° Northeast 447 514 19,700 1,920 Climbing FlightAware ADS-B (YBBN / BNE)
05:26AM -26.9635 154.0293 56° Northeast 457 526 20,700 2,040 Climbing FlightAware ADS-B (YENO)
05:26AM -26.9285 154.0878 56° Northeast 467 537 21,800 1,980 Climbing FlightAware ADS-B (YENO)
05:27AM -26.8921 154.1484 56° Northeast 475 547 22,700 1,920 Climbing FlightAware ADS-B (YENO)
05:27AM -26.8798 154.1689 56° Northeast 485 558 23,800 2,280 Climbing FlightAware ADS-B (YENO)
05:27AM -26.8439 154.2258 56° Northeast 479 551 24,100 1,680 Climbing Aus ATC (RADAR)
05:28AM -26.8110 154.2832 56° Northeast 493 567 24,700 1,200 Climbing FlightAware ADS-B (YBBN / BNE)
05:28AM -26.7697 154.3513 56° Northeast 507 583 25,300 1,260 Climbing FlightAware ADS-B (YBBN / BNE)
05:29AM -26.7242 154.4266 56° Northeast 520 598 26,100 1,680 Climbing FlightAware ADS-B (YBBN / BNE)
05:30AM -26.6823 154.4962 56° Northeast 519 597 27,200 2,100 Climbing FlightAware ADS-B (YBBN / BNE)
05:30AM -26.6221 154.5960 56° Northeast 516 594 28,800 1,920 Climbing FlightAware ADS-B (YBBN / BNE)
05:31AM -26.5619 154.6947 56° Northeast 518 596 30,100 1,440 Climbing FlightAware ADS-B (YBBN / BNE)
05:32AM -26.5204 154.7624 56° Northeast 525 604 30,600 1,320 Climbing FlightAware ADS-B (YBBN / BNE)
05:32AM -26.4763 154.8285 56° Northeast 525 604 31,500 1,320 Climbing Aus ATC (RADAR)
05:32AM -26.4596 154.8620 56° Northeast 531 611 31,600 840 Climbing FlightAware ADS-B (YBBN / BNE)
05:33AM -26.4104 154.9426 56° Northeast 536 617 32,200 960 Climbing FlightAware ADS-B (YBBN / BNE)
05:33AM -26.3699 155.0088 56° Northeast 540 621 32,700 1,080 Climbing FlightAware ADS-B (YBBN / BNE)
05:34AM -26.3271 155.0785 56° Northeast 543 625 33,300 1,560 Climbing FlightAware ADS-B (YBBN / BNE)
05:34AM -26.2794 155.1480 56° Northeast 543 625 34,300 1,620 Climbing Aus ATC (RADAR)
05:35AM -26.2625 155.1835 56° Northeast 535 616 34,500 900 Climbing FlightAware ADS-B (YBBN / BNE)
05:35AM -26.2204 155.2521 56° Northeast 530 610 35,000 360 Climbing FlightAware ADS-B (YBBN / BNE)
05:36AM -26.1583 155.3535 56° Northeast 533 613 35,000  Level FlightAware ADS-B (YBBN / BNE)
05:36AM -26.1179 155.4208 56° Northeast 533 613 35,000  Level FlightAware ADS-B (YBBN / BNE)
05:37AM -26.0533 155.5264 56° Northeast 532 612 35,000  Level FlightAware ADS-B (YBBN / BNE)
05:38AM -26.0070 155.6010 56° Northeast 532 612 35,000  Level FlightAware ADS-B (YBBN / BNE)
05:38AM -25.9452 155.7006 56° Northeast 532 612 35,000  Level FlightAware ADS-B (YBBN / BNE)
05:39AM -25.9024 155.7693 55° Northeast 532 612 35,000 120 Level FlightAware ADS-B (YBBN / BNE)
05:40AM -25.8376 155.8715 55° Northeast 524 603 35,200  Climbing Aus ATC (RADAR)
05:40AM -25.8026 155.9288 55° Northeast 533 613 35,000 -180 Descending FlightAware ADS-B (YBBN / BNE)
05:41AM -25.7310 156.0437 55° Northeast 534 615 35,000 120 Level FlightAware ADS-B (YBBN / BNE)
05:42AM -25.6758 156.1308 55° Northeast 526 605 35,200 120 Climbing Aus ATC (RADAR)
05:42AM -25.6092 156.2471 58° Northeast 529 609 35,200  Level Aus ATC (RADAR)
05:43AM -25.5825 156.2935 57° Northeast 529 609 35,200  Level Aus ATC (RADAR)
05:43AM -25.5367 156.3751 58° Northeast 527 606 35,200 -180 Level Aus ATC (RADAR)
05:44AM -25.4558 156.5115 57° Northeast 522 601 35,000 -180 Descending Aus ATC (RADAR)
05:45AM -25.4226 156.5680 57° Northeast 519 597 35,000  Level Aus ATC (RADAR)
05:45AM -25.3760 156.6467 57° Northeast 518 596 35,000  Level Aus ATC (RADAR)
05:46AM -25.3234 156.7372 57° Northeast 516 594 35,000  Level Aus ATC (RADAR)
05:47AM -25.2770 156.8148 57° Northeast 514 592 35,000  Level Aus ATC (RADAR)
05:47AM -25.2162 156.9144 56° Northeast 513 590 35,000  Level Aus ATC (RADAR)
05:48AM -25.1750 156.9798 55° Northeast 511 588 35,000  Level Aus ATC (RADAR)
05:48AM -25.1347 157.0455 56° Northeast 511 588 35,000  Level Aus ATC (RADAR)
05:49AM -25.0623 157.1674 57° Northeast 511 588 35,000  Level Aus ATC (RADAR)
05:50AM -25.0297 157.2237 57° Northeast 511 588 35,000  Level Aus ATC (RADAR)
05:50AM -24.9823 157.3002 56° Northeast 511 588 35,000  Level Aus ATC (RADAR)
05:54AM -24.7269 157.7273 57° Northeast 35,000  Level Aus ATC (Calculated)
05:55AM -24.6255 157.8960 56° Northeast 35,000  Level Aus ATC (Calculated)
05:57AM -24.4940 158.1140 56° Northeast  Level FlightAware Approximate
05:58AM -24.4221 158.2327 56° Northeast  Level FlightAware Approximate
05:59AM -24.3502 158.3513 56° Northeast  Level FlightAware Approximate
06:00AM -24.2781 158.4697 56° Northeast  Level FlightAware Approximate
06:01AM -24.2060 158.5880 56° Northeast  Level FlightAware Approximate
06:02AM -24.1337 158.7062 56° Northeast  Level FlightAware Approximate
06:03AM -24.0614 158.8243 56° Northeast  Level FlightAware Approximate
06:04AM -23.9890 158.9422 56° Northeast  Level FlightAware Approximate
06:05AM -23.9165 159.0599 56° Northeast  Level FlightAware Approximate
06:06AM -23.8439 159.1776 56° Northeast  Level FlightAware Approximate
06:07AM -23.7712 159.2951 56° Northeast  Level FlightAware Approximate
06:07AM -23.6294 159.5174 210° Southwest 35,000  Level Aus ATC (Calculated)
06:08AM -23.7415 159.4459 210° Southwest  Level FlightAware Approximate
06:09AM -23.6255 159.5297 56° Northeast  Level FlightAware Approximate
06:09AM -23.3872 159.9038 56° Northeast 35,000  Level Aus ATC (Calculated)
06:11AM -23.2974 160.0464 56° Northeast  Level FlightAware Approximate
06:12AM -23.2244 160.1619 56° Northeast  Level FlightAware Approximate
06:13AM -23.1514 160.2773 55° Northeast  Level FlightAware Approximate
06:14AM -23.0783 160.3925 55° Northeast  Level FlightAware Approximate
06:15AM -23.0051 160.5076 55° Northeast  Level FlightAware Approximate
06:16AM -22.9318 160.6226 55° Northeast  Level FlightAware Approximate
06:17AM -22.8584 160.7375 55° Northeast  Level FlightAware Approximate
06:17AM -22.7977 160.8323 55° Northeast 35,000  Level Aus ATC (Calculated)
06:19AM -22.6592 161.0481 55° Northeast  Level FlightAware Approximate
06:20AM -22.5855 161.1625 55° Northeast  Level FlightAware Approximate
06:20AM -22.5782 161.1738 55° Northeast 35,000  Level Aus ATC (Calculated)
06:21AM -22.5045 161.2881 55° Northeast  Level FlightAware Approximate
06:22AM -22.4306 161.4023 55° Northeast  Level FlightAware Approximate
06:23AM -22.3567 161.5163 55° Northeast  Level FlightAware Approximate
06:24AM -22.2827 161.6302 55° Northeast  Level FlightAware Approximate
06:25AM -22.2086 161.7440 55° Northeast  Level FlightAware Approximate
06:26AM -22.1345 161.8577 55° Northeast  Level FlightAware Approximate
06:27AM -22.0602 161.9712 55° Northeast  Level FlightAware Approximate
06:28AM -21.9859 162.0846 55° Northeast  Level FlightAware Approximate
06:29AM -21.9115 162.1980 55° Northeast  Level FlightAware Approximate
06:30AM -21.8370 162.3111 55° Northeast  Level FlightAware Approximate
06:30AM -21.7194 162.4895 55° Northeast 35,000  Level Aus ATC (Calculated)
06:31AM -21.6447 162.6024 55° Northeast  Level FlightAware Approximate
06:32AM -21.5700 162.7151 55° Northeast  Level FlightAware Approximate
06:33AM -21.4952 162.8278 54° Northeast  Level FlightAware Approximate
06:34AM -21.4203 162.9403 54° Northeast  Level FlightAware Approximate
06:35AM -21.3449 163.0524 54° Northeast  Level FlightAware Approximate
06:36AM -21.2691 163.1641 54° Northeast  Level FlightAware Approximate
06:37AM -21.1931 163.2757 54° Northeast  Level FlightAware Approximate
06:38AM -21.1171 163.3871 54° Northeast  Level FlightAware Approximate
06:39AM -21.0410 163.4985 54° Northeast  Level FlightAware Approximate
06:40AM -20.9649 163.6097 54° Northeast  Level FlightAware Approximate
06:41AM -20.8887 163.7208 54° Northeast  Level FlightAware Approximate
06:42AM -20.8124 163.8318 54° Northeast  Level FlightAware Approximate
06:43AM -20.7360 163.9427 54° Northeast  Level FlightAware Approximate
06:44AM -20.6596 164.0535 54° Northeast  Level FlightAware Approximate
06:45AM -20.5831 164.1642 54° Northeast  Level FlightAware Approximate
06:46AM -20.5065 164.2747 54° Northeast  Level FlightAware Approximate
06:47AM -20.4299 164.3851 53° Northeast  Level FlightAware Approximate
06:48AM -20.3532 164.4955 53° Northeast  Level FlightAware Approximate
06:49AM -20.2764 164.6057 53° Northeast  Level FlightAware Approximate
06:50AM -20.1995 164.7158 53° Northeast  Level FlightAware Approximate
06:51AM -20.1226 164.8258 53° Northeast  Level FlightAware Approximate
06:52AM -20.0456 164.9357 53° Northeast  Level FlightAware Approximate
06:53AM -19.9686 165.0455 53° Northeast  Level FlightAware Approximate
06:54AM -19.8915 165.1552 53° Northeast  Level FlightAware Approximate
06:55AM -19.8143 165.2648 53° Northeast  Level FlightAware Approximate
06:56AM -19.7370 165.3742 53° Northeast  Level FlightAware Approximate
06:57AM -19.6597 165.4836 53° Northeast  Level FlightAware Approximate
06:58AM -19.5823 165.5928 53° Northeast  Level FlightAware Approximate
06:59AM -19.5048 165.7020 53° Northeast  Level FlightAware Approximate
07:00AM -19.4273 165.8110 53° Northeast  Level FlightAware Approximate
07:01AM -19.3497 165.9200 53° Northeast  Level FlightAware Approximate
07:02AM -19.2721 166.0288 53° Northeast  Level FlightAware Approximate
07:03AM -19.1944 166.1376 53° Northeast  Level FlightAware Approximate
07:04AM -19.1166 166.2462 53° Northeast  Level FlightAware Approximate
07:05AM -19.0387 166.3547 53° Northeast  Level FlightAware Approximate
07:06AM -18.9608 166.4632 53° Northeast  Level FlightAware Approximate
07:07AM -18.8829 166.5715 53° Northeast  Level FlightAware Approximate
07:08AM -18.8048 166.6797 53° Northeast  Level FlightAware Approximate
07:09AM -18.7267 166.7878 53° Northeast  Level FlightAware Approximate
07:10AM -18.6486 166.8959 53° Northeast  Level FlightAware Approximate
07:11AM -18.5704 167.0038 53° Northeast  Level FlightAware Approximate
07:12AM -18.4921 167.1116 53° Northeast  Level FlightAware Approximate
07:13AM -18.4138 167.2193 53° Northeast  Level FlightAware Approximate
07:14AM -18.3354 167.3270 53° Northeast  Level FlightAware Approximate
07:15AM -18.2569 167.4345 52° Northeast  Level FlightAware Approximate
07:16AM -18.1784 167.5419 52° Northeast  Level FlightAware Approximate
07:17AM -18.0998 167.6493 52° Northeast  Level FlightAware Approximate
07:18AM -18.0212 167.7565 52° Northeast  Level FlightAware Approximate
07:19AM -17.9425 167.8637 52° Northeast  Level FlightAware Approximate
07:20AM -17.8637 167.9707 52° Northeast  Level FlightAware Approximate
07:21AM -17.7849 168.0777 52° Northeast  Level FlightAware Approximate
07:22AM -17.7060 168.1846 52° Northeast  Level FlightAware Approximate
07:23AM -17.6993 168.3195 54° Northeast  Level Estimated
07:24AM -17.6993 168.3198 87° East  Level Estimated
07:25AM -17.6993 168.3198 North  Level Estimated
07:26AM -17.6993 168.3198 North  Level Estimated
07:27AM -17.6993 168.3198 North  Level Estimated
07:28AM -17.6993 168.3198 North  Level Estimated
07:29AM -17.6993 168.3198 North  Level Estimated
07:30AM -17.6993 168.3198 North  Level Estimated
07:31AM -17.6993 168.3198 North  Level Estimated
07:32AM -17.6993 168.3198 North  Level Estimated
07:33AM -17.6993 168.3198 North  Level Estimated
07:34AM -17.6993 168.3198 North  Level Estimated
07:35AM -17.6993 168.3198 North  Level Estimated
07:36AM -17.6993 168.3198 North  Level Estimated
07:37AM -17.6993 168.3198 North  Level Estimated
07:38AM -17.6993 168.3198 North  Level Estimated
07:39AM -17.6993 168.3198 North  Level Estimated
07:40AM -17.6993 168.3198 North  Level Estimated